createdAt,value
2022-09-23T00:01:07.937Z,7.53
2022-09-23T00:03:37.393Z,7.41
2022-09-23T00:06:12.850Z,7.43
2022-09-23T00:08:41.022Z,7.66
2022-09-23T00:11:20.651Z,7.86
2022-09-23T00:13:49.527Z,7.83
2022-09-23T00:16:23.639Z,7.72
2022-09-23T00:18:50.956Z,7.42
2022-09-23T00:21:20.136Z,7.30
2022-09-23T00:23:47.374Z,7.13
2022-09-23T00:26:16.275Z,7.10
2022-09-23T00:28:43.425Z,6.98
2022-09-23T00:31:22.928Z,6.98
2022-09-23T00:33:58.585Z,6.92
2022-09-23T00:36:26.994Z,6.89
2022-09-23T00:38:54.928Z,6.86
2022-09-23T00:41:22.125Z,6.81
2022-09-23T00:43:57.054Z,6.73
2022-09-23T00:46:31.457Z,6.61
2022-09-23T00:49:12.889Z,6.53
2022-09-23T00:51:55.331Z,6.49
2022-09-23T00:54:25.930Z,6.51
2022-09-23T00:56:53.153Z,6.52
2022-09-23T00:59:20.786Z,6.49
2022-09-23T01:01:50.276Z,6.57
2022-09-23T01:04:17.210Z,6.69
2022-09-23T01:06:44.500Z,6.78
2022-09-23T01:09:11.457Z,6.81
2022-09-23T01:12:04.197Z,6.77
2022-09-23T01:14:42.300Z,6.74
2022-09-23T01:17:35.370Z,6.90
2022-09-23T01:20:32.982Z,6.96
2022-09-23T01:23:18.308Z,7.01
2022-09-23T01:25:54.062Z,7.01
2022-09-23T01:28:33.461Z,7.05
2022-09-23T01:31:32.243Z,7.08
2022-09-23T01:34:16.136Z,7.01
2022-09-23T01:36:45.737Z,6.94
2022-09-23T01:39:23.163Z,6.96
2022-09-23T01:41:59.163Z,6.90
2022-09-23T01:44:35.134Z,6.88
2022-09-23T01:47:17.858Z,6.87
2022-09-23T01:50:24.602Z,6.86
2022-09-23T01:52:54.921Z,6.88
2022-09-23T01:55:34.091Z,6.91
2022-09-23T01:58:07.762Z,6.95
2022-09-23T02:00:40.881Z,6.98
2022-09-23T02:03:15.538Z,6.98
2022-09-23T02:05:48.257Z,6.98
2022-09-23T02:08:21.293Z,6.83
2022-09-23T02:10:56.621Z,6.93
2022-09-23T02:13:29.179Z,7.21
2022-09-23T02:16:01.450Z,7.22
2022-09-23T02:18:37.675Z,7.24
2022-09-23T02:21:08.783Z,7.29
2022-09-23T02:23:43.216Z,7.34
2022-09-23T02:26:28.234Z,7.42
2022-09-23T02:29:19.818Z,7.47
2022-09-23T02:32:18.321Z,7.48
2022-09-23T02:35:11.694Z,7.46
2022-09-23T02:37:57.267Z,7.35
2022-09-23T02:40:51.148Z,7.34
2022-09-23T02:43:47.432Z,7.34
2022-09-23T02:46:15.602Z,7.28
2022-09-23T02:49:22.859Z,7.29
2022-09-23T02:51:50.912Z,7.21
2022-09-23T02:54:24.158Z,7.25
2022-09-23T02:56:52.605Z,7.16
2022-09-23T02:59:22.606Z,7.22
2022-09-23T03:02:20.702Z,7.21
2022-09-23T03:05:09.881Z,7.23
2022-09-23T03:08:25.823Z,7.29
2022-09-23T03:11:06.275Z,7.33
2022-09-23T03:13:51.361Z,7.33
2022-09-23T03:16:34.693Z,7.30
2022-09-23T03:19:20.055Z,7.21
2022-09-23T03:22:18.558Z,7.06
2022-09-23T03:24:51.829Z,6.91
2022-09-23T03:27:26.955Z,6.78
2022-09-23T03:29:55.442Z,6.63
2022-09-23T03:32:27.572Z,6.64
2022-09-23T03:34:59.035Z,6.62
2022-09-23T03:37:55.513Z,6.62
2022-09-23T03:40:32.735Z,6.55
2022-09-23T03:43:01.593Z,6.39
2022-09-23T03:45:32.756Z,6.20
2022-09-23T03:48:00.243Z,6.08
2022-09-23T03:50:27.943Z,6.14
2022-09-23T03:52:55.816Z,6.33
2022-09-23T03:55:22.745Z,6.54
2022-09-23T03:57:49.697Z,6.68
2022-09-23T04:00:16.740Z,6.74
2022-09-23T04:02:44.249Z,6.85
2022-09-23T04:05:12.716Z,6.91
2022-09-23T04:07:39.751Z,6.96
2022-09-23T04:10:07.403Z,7.05
2022-09-23T04:12:34.392Z,7.05
2022-09-23T04:15:01.373Z,7.02
2022-09-23T04:17:28.474Z,6.95
2022-09-23T04:19:55.331Z,6.92
2022-09-23T04:22:22.461Z,6.92
2022-09-23T04:24:49.387Z,6.93
2022-09-23T04:27:16.326Z,6.89
2022-09-23T04:29:43.254Z,6.83
2022-09-23T04:32:10.359Z,6.82
2022-09-23T04:34:37.350Z,6.80
2022-09-23T04:37:04.394Z,6.78
2022-09-23T04:39:31.363Z,6.73
2022-09-23T04:41:58.333Z,6.68
2022-09-23T04:44:28.185Z,6.82
2022-09-23T04:46:55.146Z,6.97
2022-09-23T04:49:22.108Z,7.16
2022-09-23T04:51:49.061Z,7.15
2022-09-23T04:54:16.001Z,7.27
2022-09-23T04:56:43.027Z,7.39
2022-09-23T04:59:10.021Z,7.51
2022-09-23T05:01:38.507Z,7.66
2022-09-23T05:04:08.583Z,7.87
2022-09-23T05:06:36.483Z,7.99
2022-09-23T05:09:07.289Z,8.14
2022-09-23T05:11:35.097Z,8.31
2022-09-23T05:14:02.433Z,8.48
2022-09-23T05:16:29.869Z,8.67
2022-09-23T05:18:57.658Z,8.81
2022-09-23T05:21:27.005Z,8.98
2022-09-23T05:23:56.714Z,9.08
2022-09-23T05:26:25.780Z,9.21
2022-09-23T05:28:54.044Z,9.45
2022-09-23T05:31:26.615Z,9.73
2022-09-23T05:34:00.392Z,9.67
2022-09-23T05:36:31.221Z,9.72
2022-09-23T05:39:01.355Z,9.71
2022-09-23T05:41:28.330Z,9.62
2022-09-23T05:43:56.223Z,9.74
2022-09-23T05:46:26.452Z,9.78
2022-09-23T05:48:56.779Z,9.91
2022-09-23T05:51:30.891Z,9.86
2022-09-23T05:53:59.590Z,9.84
2022-09-23T05:56:28.640Z,9.93
2022-09-23T05:58:58.103Z,9.97
2022-09-23T06:01:28.041Z,9.98
2022-09-23T06:03:57.084Z,9.98
2022-09-23T06:06:31.065Z,9.87
2022-09-23T06:08:59.481Z,9.78
2022-09-23T06:11:27.520Z,9.74
2022-09-23T06:14:02.527Z,9.74
2022-09-23T06:16:32.411Z,9.80
2022-09-23T06:19:06.464Z,9.77
2022-09-23T06:21:36.394Z,9.80
2022-09-23T06:24:04.057Z,9.80
2022-09-23T06:26:33.995Z,10.06
2022-09-23T06:29:02.791Z,10.19
2022-09-23T06:31:30.212Z,10.29
2022-09-23T06:34:11.655Z,10.45
2022-09-23T06:36:44.414Z,10.65
2022-09-23T06:39:12.959Z,10.43
2022-09-23T06:41:39.878Z,10.57
2022-09-23T06:44:12.286Z,10.55
2022-09-23T06:46:39.228Z,10.52
2022-09-23T06:49:06.502Z,10.69
2022-09-23T06:51:33.520Z,10.80
2022-09-23T06:54:00.596Z,10.80
2022-09-23T06:56:27.761Z,10.83
2022-09-23T06:58:54.897Z,11.00
2022-09-23T07:01:22.930Z,11.07
2022-09-23T07:03:50.217Z,11.23
2022-09-23T07:06:17.784Z,11.31
2022-09-23T07:08:47.207Z,11.42
2022-09-23T07:11:15.869Z,11.63
2022-09-23T07:13:43.563Z,11.54
2022-09-23T07:16:11.715Z,11.68
2022-09-23T07:18:39.615Z,11.73
2022-09-23T07:21:15.428Z,11.79
2022-09-23T07:23:51.451Z,12.08
2022-09-23T07:26:19.426Z,12.19
2022-09-23T07:28:46.585Z,11.98
2022-09-23T07:31:18.230Z,12.07
2022-09-23T07:33:49.285Z,12.06
2022-09-23T07:36:18.762Z,12.47
2022-09-23T07:38:47.462Z,12.56
2022-09-23T07:41:17.850Z,12.89
2022-09-23T07:43:46.195Z,13.20
2022-09-23T07:46:16.935Z,13.43
2022-09-23T07:48:45.974Z,13.23
2022-09-23T07:51:19.097Z,13.14
2022-09-23T07:53:51.323Z,13.54
2022-09-23T07:56:19.627Z,13.79
2022-09-23T07:59:00.341Z,13.44
2022-09-23T08:01:29.847Z,13.64
2022-09-23T08:03:58.667Z,13.71
2022-09-23T08:06:26.315Z,13.73
2022-09-23T08:08:53.714Z,13.60
2022-09-23T08:11:20.807Z,13.48
2022-09-23T08:13:47.908Z,13.62
2022-09-23T08:16:14.919Z,13.62
2022-09-23T08:18:45.413Z,13.79
2022-09-23T08:21:12.899Z,14.09
2022-09-23T08:23:39.872Z,14.02
2022-09-23T08:26:13.935Z,13.94
2022-09-23T08:28:48.062Z,13.98
2022-09-23T08:31:15.406Z,14.05
2022-09-23T08:33:42.340Z,14.14
2022-09-23T08:36:09.294Z,14.26
2022-09-23T08:38:36.387Z,14.16
2022-09-23T08:41:18.396Z,14.49
2022-09-23T08:43:50.759Z,14.33
2022-09-23T08:46:28.034Z,14.47
2022-09-23T08:48:56.008Z,14.73
2022-09-23T08:51:29.574Z,14.80
2022-09-23T08:53:58.296Z,14.76
2022-09-23T08:56:25.237Z,14.98
2022-09-23T08:59:07.934Z,15.19
2022-09-23T09:01:47.387Z,15.37
2022-09-23T09:04:16.332Z,15.34
2022-09-23T09:07:07.630Z,15.44
2022-09-23T09:09:47.216Z,15.55
2022-09-23T09:12:16.600Z,15.42
2022-09-23T09:14:53.869Z,15.67
2022-09-23T09:17:35.735Z,16.04
2022-09-23T09:20:18.999Z,16.09
2022-09-23T09:23:00.621Z,15.78
2022-09-23T09:25:39.940Z,15.32
2022-09-23T09:28:41.813Z,15.55
2022-09-23T09:31:27.144Z,15.84
2022-09-23T09:34:05.162Z,16.42
2022-09-23T09:36:53.078Z,16.46
2022-09-23T09:39:22.963Z,16.02
2022-09-23T09:41:59.597Z,16.51
2022-09-23T10:17:33.500Z,15.38
2022-09-23T10:20:06.947Z,15.57
2022-09-23T10:22:39.162Z,15.83
2022-09-23T10:25:10.711Z,15.74
2022-09-23T10:27:38.922Z,15.95
2022-09-23T10:30:23.633Z,16.12
2022-09-23T10:32:53.200Z,16.12
2022-09-23T10:35:23.130Z,16.55
2022-09-23T10:37:55.145Z,16.65
2022-09-23T10:40:51.547Z,16.87
2022-09-23T10:43:52.194Z,16.46
2022-09-23T10:46:39.660Z,16.34
2022-09-23T10:49:44.368Z,15.97
2022-09-23T10:52:35.293Z,16.09
2022-09-23T10:55:09.328Z,15.99
2022-09-23T10:57:41.751Z,16.22
2022-09-23T11:00:22.450Z,16.28
2022-09-23T11:03:01.276Z,16.05
2022-09-23T11:05:46.242Z,15.88
2022-09-23T11:08:37.806Z,16.09
2022-09-23T11:11:41.841Z,16.09
2022-09-23T11:14:34.165Z,16.29
2022-09-23T11:17:30.044Z,16.62
2022-09-23T11:20:15.579Z,16.62
2022-09-23T11:23:12.137Z,16.39
2022-09-23T11:26:01.747Z,16.70
2022-09-23T11:28:50.769Z,16.84
2022-09-23T11:31:30.234Z,16.32
2022-09-23T11:34:26.769Z,16.02
2022-09-23T11:37:02.320Z,15.84
2022-09-23T11:39:41.900Z,15.93
2022-09-23T11:42:18.033Z,15.74
2022-09-23T11:44:51.916Z,15.79
2022-09-23T11:47:44.723Z,15.79
2022-09-23T11:50:32.801Z,15.59
2022-09-23T11:53:08.778Z,14.38
2022-09-23T11:55:55.105Z,13.46
2022-09-23T11:58:31.793Z,12.68
2022-09-23T12:01:06.885Z,12.51
2022-09-23T12:03:51.092Z,12.44
2022-09-23T12:06:32.461Z,12.53
2022-09-23T12:09:07.377Z,12.84
2022-09-23T12:11:44.131Z,12.89
2022-09-23T12:14:18.403Z,13.24
2022-09-23T12:16:45.399Z,13.48
2022-09-23T12:19:36.792Z,13.92
2022-09-23T12:22:25.701Z,13.85
2022-09-23T12:25:53.889Z,14.09
2022-09-23T12:28:38.519Z,14.25
2022-09-23T12:31:11.964Z,14.47
2022-09-23T12:33:39.108Z,14.54
2022-09-23T12:36:12.348Z,14.85
2022-09-23T12:38:54.948Z,15.01
2022-09-23T12:41:35.457Z,15.20
2022-09-23T12:44:37.749Z,15.22
2022-09-23T12:47:37.104Z,15.48
2022-09-23T12:50:42.856Z,15.53
2022-09-23T12:53:34.118Z,15.43
2022-09-23T12:56:17.294Z,15.01
2022-09-23T12:58:44.118Z,14.73
2022-09-23T13:01:21.142Z,14.39
2022-09-23T13:04:10.350Z,14.41
2022-09-23T13:06:57.499Z,14.46
2022-09-23T13:09:31.837Z,14.49
2022-09-23T13:12:03.588Z,14.61
2022-09-23T13:14:33.403Z,14.78
2022-09-23T13:17:00.766Z,14.67
2022-09-23T13:19:27.822Z,14.71
2022-09-23T13:21:54.640Z,14.90
2022-09-23T13:24:25.162Z,15.21
2022-09-23T13:26:57.418Z,15.52
2022-09-23T13:29:28.635Z,15.33
2022-09-23T13:31:58.033Z,15.17
2022-09-23T13:34:32.921Z,15.11
2022-09-23T13:37:22.030Z,15.21
2022-09-23T13:39:49.953Z,15.02
2022-09-23T13:42:37.950Z,15.19
2022-09-23T13:45:05.281Z,15.16
2022-09-23T13:47:35.615Z,15.07
2022-09-23T13:50:02.939Z,14.54
2022-09-23T13:52:33.044Z,14.41
2022-09-23T13:55:00.014Z,14.52
2022-09-23T13:57:33.903Z,14.28
2022-09-23T14:00:35.615Z,14.24
2022-09-23T14:03:16.015Z,14.28
2022-09-23T14:05:43.495Z,14.19
2022-09-23T14:08:10.614Z,14.26
2022-09-23T14:10:43.005Z,14.26
2022-09-23T14:13:26.054Z,14.33
2022-09-23T14:15:56.457Z,14.45
2022-09-23T14:18:36.659Z,14.45
2022-09-23T14:21:03.964Z,14.34
2022-09-23T14:23:31.136Z,14.52
2022-09-23T14:25:59.236Z,14.53
2022-09-23T14:28:27.892Z,14.44
2022-09-23T14:30:58.517Z,14.49
2022-09-23T14:33:28.683Z,14.47
2022-09-23T14:36:03.118Z,14.59
2022-09-23T14:38:49.468Z,14.60
2022-09-23T14:41:38.296Z,14.68
2022-09-23T14:44:07.215Z,14.67
2022-09-23T14:46:37.227Z,14.56
2022-09-23T14:49:16.783Z,14.73
2022-09-23T14:51:56.167Z,14.84
2022-09-23T14:54:36.356Z,15.10
2022-09-23T14:57:25.206Z,15.20
2022-09-23T15:00:18.322Z,15.11
2022-09-23T15:02:58.545Z,15.32
2022-09-23T15:05:47.896Z,15.42
2022-09-23T15:08:20.312Z,15.40
2022-09-23T15:10:48.127Z,15.12
2022-09-23T15:13:22.669Z,15.22
2022-09-23T15:15:53.595Z,15.10
2022-09-23T15:18:33.539Z,15.19
2022-09-23T15:21:07.831Z,15.07
2022-09-23T15:23:58.655Z,15.09
2022-09-23T15:26:47.268Z,15.04
2022-09-23T15:29:14.248Z,14.83
2022-09-23T15:31:41.348Z,14.63
2022-09-23T15:34:11.035Z,14.66
2022-09-23T15:36:38.724Z,14.72
2022-09-23T15:39:08.759Z,14.72
2022-09-23T15:41:35.764Z,14.66
2022-09-23T15:44:13.799Z,14.53
2022-09-23T15:46:46.444Z,14.46
2022-09-23T15:49:28.930Z,14.52
2022-09-23T15:51:59.698Z,14.45
2022-09-23T15:54:28.324Z,14.35
2022-09-23T15:56:56.493Z,14.30
2022-09-23T15:59:24.255Z,14.24
2022-09-23T16:01:52.490Z,14.11
2022-09-23T16:04:19.894Z,14.10
2022-09-23T16:06:48.447Z,14.18
2022-09-23T16:09:16.125Z,14.13
2022-09-23T16:11:46.437Z,14.01
2022-09-23T16:14:15.962Z,13.68
2022-09-23T16:16:45.238Z,13.65
2022-09-23T16:19:12.707Z,13.54
2022-09-23T16:21:44.749Z,13.42
2022-09-23T16:24:17.280Z,13.25
2022-09-23T16:26:45.271Z,13.05
2022-09-23T16:29:12.364Z,12.47
2022-09-23T16:31:39.732Z,12.02
2022-09-23T16:34:07.058Z,11.81
2022-09-23T16:36:40.687Z,11.70
2022-09-23T16:39:10.951Z,11.73
2022-09-23T16:41:38.365Z,11.76
2022-09-23T16:44:07.601Z,11.85
2022-09-23T16:46:34.936Z,11.94
2022-09-23T16:49:01.911Z,11.87
2022-09-23T16:51:32.228Z,11.89
2022-09-23T16:54:00.253Z,11.90
2022-09-23T16:56:29.309Z,11.98
2022-09-23T16:58:57.129Z,12.02
2022-09-23T17:01:44.462Z,12.20
2022-09-23T17:04:12.801Z,12.31
2022-09-23T17:06:58.156Z,12.35
2022-09-23T17:09:27.975Z,12.39
2022-09-23T17:12:12.048Z,12.44
2022-09-23T17:14:39.002Z,12.45
2022-09-23T17:17:06.755Z,12.53
2022-09-23T17:19:34.620Z,12.44
2022-09-23T17:22:01.578Z,12.16
2022-09-23T17:24:28.510Z,11.93
2022-09-23T17:26:55.526Z,12.05
2022-09-23T17:29:22.456Z,12.04
2022-09-23T17:31:49.691Z,12.08
2022-09-23T17:34:18.840Z,11.93
2022-09-23T17:36:46.146Z,11.70
2022-09-23T17:39:13.023Z,11.69
2022-09-23T17:41:40.354Z,11.65
2022-09-23T17:44:11.126Z,11.60
2022-09-23T17:46:38.126Z,11.59
2022-09-23T17:49:05.635Z,11.09
2022-09-23T17:51:33.422Z,10.80
2022-09-23T17:54:00.333Z,10.77
2022-09-23T17:56:30.045Z,10.83
2022-09-23T17:59:00.818Z,10.79
2022-09-23T18:01:28.183Z,10.69
2022-09-23T18:03:56.994Z,10.49
2022-09-23T18:06:26.757Z,10.79
2022-09-23T18:08:54.857Z,10.88
2022-09-23T18:11:24.239Z,11.12
2022-09-23T18:13:59.267Z,11.05
2022-09-23T18:16:29.972Z,10.82
2022-09-23T18:19:01.831Z,10.94
2022-09-23T18:21:32.660Z,10.93
2022-09-23T18:24:21.674Z,10.89
2022-09-23T18:26:49.815Z,10.73
2022-09-23T18:29:17.420Z,10.68
2022-09-23T18:31:45.216Z,10.56
2022-09-23T18:34:15.261Z,10.44
2022-09-23T18:36:42.323Z,10.19
2022-09-23T18:39:09.617Z,9.95
2022-09-23T18:41:36.661Z,9.73
2022-09-23T18:44:04.616Z,9.59
2022-09-23T18:46:31.964Z,9.39
2022-09-23T18:49:18.374Z,9.20
2022-09-23T18:51:55.006Z,9.15
2022-09-23T18:54:23.814Z,9.06
2022-09-23T18:56:52.899Z,9.02
2022-09-23T18:59:23.979Z,9.05
2022-09-23T19:01:51.537Z,9.19
2022-09-23T19:04:20.625Z,9.28
2022-09-23T19:06:48.191Z,9.31
2022-09-23T19:09:16.075Z,9.42
2022-09-23T19:11:44.442Z,9.50
2022-09-23T19:14:12.835Z,9.54
2022-09-23T19:16:40.898Z,9.51
2022-09-23T19:19:08.371Z,9.46
2022-09-23T19:21:35.460Z,9.35
2022-09-23T19:24:05.205Z,9.34
2022-09-23T19:26:38.904Z,9.40
2022-09-23T19:29:08.380Z,9.45
2022-09-23T19:31:40.600Z,9.48
2022-09-23T19:34:19.700Z,9.55
2022-09-23T19:36:47.818Z,9.45
2022-09-23T19:39:18.690Z,9.44
2022-09-23T19:41:46.394Z,9.28
2022-09-23T19:44:13.482Z,9.21
2022-09-23T19:46:44.550Z,9.01
2022-09-23T19:49:12.085Z,8.96
2022-09-23T19:51:39.249Z,8.98
2022-09-23T19:54:07.889Z,9.03
2022-09-23T19:56:35.444Z,8.94
2022-09-23T19:59:03.307Z,8.94
2022-09-23T20:01:32.133Z,8.94
2022-09-23T20:03:59.555Z,8.90
2022-09-23T20:06:30.596Z,9.06
2022-09-23T20:09:00.884Z,9.18
2022-09-23T20:11:28.944Z,9.21
2022-09-23T20:14:01.248Z,9.05
2022-09-23T20:16:32.425Z,9.07
2022-09-23T20:19:00.924Z,9.03
2022-09-23T20:21:29.553Z,8.95
2022-09-23T20:23:57.795Z,8.91
2022-09-23T20:26:43.237Z,8.97
2022-09-23T20:29:11.166Z,9.12
2022-09-23T20:31:40.508Z,9.18
2022-09-23T20:34:08.284Z,9.40
2022-09-23T20:36:35.456Z,9.48
2022-09-23T20:39:06.059Z,9.19
2022-09-23T20:41:37.612Z,9.07
2022-09-23T20:44:08.203Z,9.01
2022-09-23T20:46:36.024Z,8.97
2022-09-23T20:49:04.074Z,8.87
2022-09-23T20:51:33.411Z,8.72
2022-09-23T20:54:00.988Z,8.69
2022-09-23T20:56:29.298Z,8.79
2022-09-23T20:59:03.541Z,8.91
2022-09-23T21:01:34.917Z,8.90
2022-09-23T21:04:04.977Z,8.73
2022-09-23T21:06:34.318Z,8.66
2022-09-23T21:09:01.229Z,8.58
2022-09-23T21:11:29.247Z,8.62
2022-09-23T21:13:56.678Z,8.58
2022-09-23T21:16:24.638Z,8.51
2022-09-23T21:18:52.715Z,8.53
2022-09-23T21:21:22.355Z,8.64
2022-09-23T21:23:50.456Z,8.72
2022-09-23T21:26:20.206Z,8.61
2022-09-23T21:28:57.878Z,8.39
2022-09-23T21:31:28.147Z,8.36
2022-09-23T21:33:56.914Z,8.41
2022-09-23T21:36:24.927Z,8.44
2022-09-23T21:38:53.137Z,8.45
2022-09-23T21:41:20.409Z,8.40
2022-09-23T21:43:49.614Z,8.41
2022-09-23T21:46:20.973Z,8.47
2022-09-23T21:48:50.304Z,8.44
2022-09-23T21:51:19.378Z,8.38
2022-09-23T21:53:46.959Z,8.33
2022-09-23T21:56:20.891Z,8.37
2022-09-23T21:58:49.017Z,8.36
2022-09-23T22:01:26.183Z,8.34
2022-09-23T22:04:05.149Z,8.28
2022-09-23T22:06:32.621Z,8.21
2022-09-23T22:09:02.703Z,8.23
2022-09-23T22:11:50.505Z,8.21
2022-09-23T22:14:20.000Z,8.15
2022-09-23T22:16:46.934Z,8.10
2022-09-23T22:19:15.666Z,8.14
2022-09-23T22:21:45.403Z,8.07
2022-09-23T22:24:13.125Z,7.93
2022-09-23T22:26:42.116Z,7.90
2022-09-23T22:29:30.521Z,7.86
2022-09-23T22:32:16.691Z,7.75
2022-09-23T22:34:49.920Z,7.64
2022-09-23T22:37:21.609Z,7.62
2022-09-23T22:39:48.635Z,7.66
2022-09-23T22:42:16.211Z,7.62
2022-09-23T22:44:43.137Z,7.64
2022-09-23T22:47:10.687Z,7.70
2022-09-23T22:49:37.751Z,7.73
2022-09-23T22:52:08.103Z,7.76
2022-09-23T22:54:35.775Z,7.77
2022-09-23T22:57:09.530Z,7.88
2022-09-23T22:59:39.667Z,7.92
2022-09-23T23:02:07.794Z,7.96
2022-09-23T23:04:36.614Z,8.00
2022-09-23T23:07:03.552Z,8.01
2022-09-23T23:09:30.492Z,8.03
2022-09-23T23:11:57.340Z,8.04
2022-09-23T23:14:24.516Z,8.03
2022-09-23T23:16:51.443Z,8.05
2022-09-23T23:19:19.313Z,8.06
2022-09-23T23:21:46.431Z,8.06
2022-09-23T23:24:20.476Z,8.14
2022-09-23T23:26:48.015Z,8.15
2022-09-23T23:29:16.864Z,8.21
2022-09-23T23:31:44.157Z,8.23
2022-09-23T23:34:13.548Z,8.13
2022-09-23T23:36:41.618Z,8.01
2022-09-23T23:39:08.819Z,7.90
2022-09-23T23:41:36.439Z,7.83
2022-09-23T23:44:03.807Z,7.77
2022-09-23T23:46:32.270Z,7.69
2022-09-23T23:49:00.393Z,7.56
2022-09-23T23:51:27.938Z,7.55
2022-09-23T23:53:56.261Z,7.57
2022-09-23T23:56:25.684Z,7.60
2022-09-23T23:58:57.008Z,7.66
